createdAt,value
2019-04-14T00:04:07.305Z,83.10
2019-04-14T00:10:01.134Z,83.50
2019-04-14T00:12:33.690Z,83.50
2019-04-14T00:15:05.689Z,84.30
2019-04-14T00:17:36.762Z,85.10
2019-04-14T00:20:07.365Z,85.90
2019-04-14T00:22:38.113Z,85.20
2019-04-14T00:25:08.652Z,85.20
2019-04-14T00:27:38.841Z,85.10
2019-04-14T00:30:09.737Z,84.80
2019-04-14T00:32:46.952Z,84.80
2019-04-14T00:35:27.766Z,85.60
2019-04-14T00:37:59.809Z,85.50
2019-04-14T00:40:37.416Z,85.60
2019-04-14T00:43:24.695Z,85.20
2019-04-14T00:48:49.696Z,86.40
2019-04-14T00:54:43.494Z,85.30
2019-04-14T01:00:17.282Z,85.90
2019-04-14T01:06:09.725Z,83.80
2019-04-14T01:08:40.296Z,82.10
2019-04-14T01:11:11.756Z,77.20
2019-04-14T01:13:41.820Z,73.40
2019-04-14T01:16:16.795Z,70.60
2019-04-14T01:25:35.301Z,69.00
2019-04-14T01:31:16.267Z,68.60
2019-04-14T01:37:33.670Z,68.50
2019-04-14T01:40:03.393Z,67.60
2019-04-14T01:42:33.437Z,67.30
2019-04-14T01:45:04.228Z,67.70
2019-04-14T01:47:33.745Z,67.60
2019-04-14T01:50:03.777Z,67.80
2019-04-14T01:52:38.482Z,67.80
2019-04-14T01:55:14.061Z,67.90
2019-04-14T01:57:52.257Z,68.30
2019-04-14T02:00:33.728Z,67.90
2019-04-14T02:03:04.276Z,68.10
2019-04-14T02:05:34.300Z,68.30
2019-04-14T02:08:05.204Z,68.50
2019-04-14T02:10:34.826Z,69.00
2019-04-14T02:13:04.985Z,69.50
2019-04-14T02:15:35.683Z,70.10
2019-04-14T02:18:05.649Z,69.70
2019-04-14T02:20:36.053Z,70.30
2019-04-14T02:23:06.148Z,70.40
2019-04-14T02:29:01.314Z,70.80
2019-04-14T02:31:52.893Z,69.90
2019-04-14T02:34:35.795Z,69.80
2019-04-14T02:37:19.654Z,69.40
2019-04-14T02:43:03.381Z,69.30
2019-04-14T02:51:25.629Z,69.00
2019-04-14T02:54:04.906Z,68.60
2019-04-14T02:59:58.982Z,67.60
2019-04-14T03:05:00.062Z,67.20
2019-04-14T03:07:28.637Z,67.20
2019-04-14T03:09:53.782Z,67.20
2019-04-14T03:16:02.246Z,67.20
2019-04-14T03:18:39.522Z,67.30
2019-04-14T03:21:34.644Z,67.90
2019-04-14T03:24:03.101Z,68.00
2019-04-14T03:30:36.534Z,67.00
2019-04-14T03:36:58.353Z,66.90
2019-04-14T03:45:04.134Z,67.80
2019-04-14T03:51:06.909Z,68.10
2019-04-14T04:00:16.642Z,68.30
2019-04-14T04:06:09.714Z,68.00
2019-04-14T04:12:15.954Z,68.70
2019-04-14T04:14:46.386Z,68.80
2019-04-14T04:20:30.625Z,68.60
2019-04-14T04:23:14.191Z,67.40
2019-04-14T04:25:48.690Z,68.10
2019-04-14T04:31:43.925Z,67.20
2019-04-14T04:44:24.772Z,67.30
2019-04-14T04:46:54.892Z,68.10
2019-04-14T04:53:00.502Z,68.70
2019-04-14T04:55:30.636Z,70.00
2019-04-14T04:58:01.271Z,69.50
2019-04-14T05:00:33.076Z,71.50
2019-04-14T05:03:03.666Z,72.10
2019-04-14T05:06:11.486Z,72.40
2019-04-14T05:12:06.671Z,71.70
2019-04-14T05:18:24.870Z,71.50
2019-04-14T05:20:55.368Z,72.70
2019-04-14T05:23:25.651Z,72.40
2019-04-14T05:29:19.270Z,71.30
2019-04-14T05:34:55.048Z,69.80
2019-04-14T05:37:24.785Z,69.40
2019-04-14T05:43:38.400Z,67.90
2019-04-14T05:49:34.012Z,68.50
2019-04-14T05:55:21.924Z,68.20
2019-04-14T05:57:52.489Z,68.30
2019-04-14T06:03:45.527Z,68.00
2019-04-14T06:10:05.277Z,67.80
2019-04-14T06:12:34.959Z,67.60
2019-04-14T06:15:05.700Z,67.70
2019-04-14T06:21:10.246Z,67.20
2019-04-14T06:23:39.885Z,67.90
2019-04-14T06:29:32.849Z,68.90
2019-04-14T06:35:42.709Z,74.90
2019-04-14T06:41:36.379Z,81.00
2019-04-14T06:44:06.022Z,81.90
2019-04-14T06:46:35.522Z,83.50
2019-04-14T06:49:05.161Z,83.60
2019-04-14T06:51:34.735Z,84.30
2019-04-14T06:54:04.393Z,82.90
2019-04-14T06:56:34.070Z,83.90
2019-04-14T06:59:03.803Z,84.20
2019-04-14T07:01:33.479Z,82.90
2019-04-14T07:07:27.553Z,83.60
2019-04-14T07:09:57.202Z,81.50
2019-04-14T07:15:49.959Z,80.30
2019-04-14T07:21:55.161Z,79.00
2019-04-14T07:27:37.278Z,78.00
2019-04-14T07:30:15.238Z,74.90
2019-04-14T07:32:46.465Z,73.60
2019-04-14T07:35:34.443Z,74.50
2019-04-14T07:41:32.828Z,72.30
2019-04-14T07:47:18.789Z,71.40
2019-04-14T07:53:29.615Z,71.40
2019-04-14T07:56:09.706Z,70.70
2019-04-14T08:02:08.352Z,71.70
2019-04-14T08:07:50.181Z,70.70
2019-04-14T08:13:55.798Z,70.60
2019-04-14T08:16:25.447Z,71.80
2019-04-14T08:18:55.016Z,69.30
2019-04-14T08:21:24.677Z,70.00
2019-04-14T08:23:54.266Z,69.50
2019-04-14T08:26:23.902Z,68.20
2019-04-14T08:28:53.481Z,68.60
2019-04-14T08:31:23.137Z,69.70
2019-04-14T08:33:52.783Z,69.60
2019-04-14T08:39:59.139Z,70.80
2019-04-14T08:42:30.509Z,68.40
2019-04-14T08:48:26.128Z,68.30
2019-04-14T08:54:27.736Z,66.20
2019-04-14T09:00:32.251Z,68.00
2019-04-14T09:03:06.469Z,66.80
2019-04-14T09:09:13.616Z,67.20
2019-04-14T09:15:08.832Z,67.30
2019-04-14T09:21:02.726Z,67.30
2019-04-14T09:23:32.301Z,68.60
2019-04-14T09:29:37.886Z,69.30
2019-04-14T09:35:33.058Z,68.40
2019-04-14T09:41:27.121Z,68.50
2019-04-14T09:47:37.405Z,67.80
2019-04-14T09:50:07.267Z,67.70
2019-04-14T09:55:48.670Z,67.60
2019-04-14T10:02:06.634Z,67.10
2019-04-14T10:04:36.206Z,65.30
2019-04-14T10:07:05.789Z,66.40
2019-04-14T10:09:35.438Z,66.00
2019-04-14T10:12:05.104Z,65.00
2019-04-14T10:14:34.760Z,65.70
2019-04-14T10:17:04.483Z,64.60
2019-04-14T10:19:34.203Z,63.40
2019-04-14T10:22:03.883Z,60.40
2019-04-14T10:24:33.393Z,60.20
2019-04-14T10:27:02.976Z,59.80
2019-04-14T10:36:44.717Z,59.20
2019-04-14T10:42:37.779Z,59.00
2019-04-14T10:48:30.850Z,57.90
2019-04-14T10:51:00.491Z,58.50
2019-04-14T10:53:30.160Z,59.80
2019-04-14T10:55:59.827Z,59.10
2019-04-14T10:58:29.427Z,59.50
2019-04-14T11:00:58.940Z,58.90
2019-04-14T11:03:28.583Z,59.40
2019-04-14T11:09:22.161Z,59.70
2019-04-14T11:11:51.803Z,59.70
2019-04-14T11:17:45.242Z,60.40
2019-04-14T11:20:52.400Z,59.30
2019-04-14T11:23:21.899Z,59.60
2019-04-14T11:25:51.623Z,58.90
2019-04-14T11:28:21.123Z,59.00
2019-04-14T11:30:51.352Z,57.10
2019-04-14T11:33:22.492Z,57.20
2019-04-14T11:35:53.793Z,57.60
2019-04-14T11:38:25.082Z,56.40
2019-04-14T11:41:02.184Z,55.10
2019-04-14T11:43:31.895Z,55.40
2019-04-14T11:46:03.622Z,55.50
2019-04-14T11:48:32.871Z,56.10
2019-04-14T11:51:02.597Z,55.50
2019-04-14T11:53:32.329Z,55.40
2019-04-14T11:56:02.087Z,54.80
2019-04-14T11:58:31.648Z,54.20
2019-04-14T12:01:11.806Z,54.40
2019-04-14T12:03:45.604Z,55.20
2019-04-14T12:06:22.501Z,54.00
2019-04-14T12:09:02.980Z,53.00
2019-04-14T12:11:34.243Z,54.20
2019-04-14T12:14:03.978Z,54.90
2019-04-14T12:16:33.703Z,55.00
2019-04-14T12:19:03.338Z,55.80
2019-04-14T12:21:33.050Z,55.90
2019-04-14T12:24:02.762Z,55.60
2019-04-14T12:26:32.479Z,55.40
2019-04-14T12:29:03.551Z,55.60
2019-04-14T12:31:35.308Z,55.50
2019-04-14T12:34:05.242Z,56.50
2019-04-14T12:36:35.889Z,56.80
2019-04-14T12:39:17.193Z,56.90
2019-04-14T12:41:48.408Z,56.40
2019-04-14T12:44:35.731Z,55.70
2019-04-14T12:47:07.029Z,55.50
2019-04-14T12:49:40.835Z,54.90
2019-04-14T12:52:21.555Z,55.00
2019-04-14T12:54:48.755Z,54.50
2019-04-14T12:57:21.033Z,55.50
2019-04-14T12:59:50.628Z,56.10
2019-04-14T13:02:21.846Z,55.40
2019-04-14T13:04:51.357Z,54.40
2019-04-14T13:07:30.102Z,53.80
2019-04-14T13:10:03.441Z,52.40
2019-04-14T13:12:33.170Z,52.80
2019-04-14T13:15:03.028Z,52.70
2019-04-14T13:17:38.095Z,54.40
2019-04-14T13:20:08.270Z,55.60
2019-04-14T13:22:37.784Z,55.20
2019-04-14T13:25:07.833Z,56.70
2019-04-14T13:27:37.491Z,58.30
2019-04-14T13:30:09.322Z,58.00
2019-04-14T13:32:39.050Z,57.60
2019-04-14T13:35:08.758Z,57.10
2019-04-14T13:37:38.333Z,56.40
2019-04-14T13:40:08.681Z,55.30
2019-04-14T13:42:38.461Z,54.60
2019-04-14T13:45:08.546Z,53.70
2019-04-14T13:47:38.178Z,54.40
2019-04-14T13:50:07.911Z,55.90
2019-04-14T13:52:46.542Z,55.60
2019-04-14T13:55:08.926Z,54.80
2019-04-14T13:57:38.636Z,54.30
2019-04-14T14:00:11.780Z,51.10
2019-04-14T14:02:43.130Z,53.80
2019-04-14T14:05:12.838Z,57.10
2019-04-14T14:07:42.482Z,53.10
2019-04-14T14:10:12.621Z,50.10
2019-04-14T14:12:55.475Z,53.00
2019-04-14T14:15:43.099Z,54.70
2019-04-14T14:18:22.980Z,53.20
2019-04-14T14:20:56.809Z,51.20
2019-04-14T14:23:30.941Z,50.40
2019-04-14T14:26:10.822Z,52.60
2019-04-14T14:28:40.473Z,53.40
2019-04-14T14:31:10.187Z,53.50
2019-04-14T14:33:39.756Z,53.50
2019-04-14T14:36:09.402Z,53.80
2019-04-14T14:38:38.887Z,50.10
2019-04-14T14:41:10.094Z,44.40
2019-04-14T14:43:41.121Z,41.70
2019-04-14T14:46:15.221Z,44.40
2019-04-14T14:48:46.485Z,49.10
2019-04-14T14:51:26.322Z,50.30
2019-04-14T14:53:56.189Z,50.70
2019-04-14T14:56:25.825Z,51.40
2019-04-14T14:58:55.408Z,53.30
2019-04-14T15:01:25.114Z,54.20
2019-04-14T15:03:54.761Z,54.10
2019-04-14T15:06:24.336Z,55.00
2019-04-14T15:08:53.916Z,55.10
2019-04-14T15:11:23.616Z,55.30
2019-04-14T15:13:53.259Z,56.00
2019-04-14T15:16:22.836Z,56.60
2019-04-14T15:18:52.549Z,54.80
2019-04-14T15:21:22.191Z,54.60
2019-04-14T15:23:51.829Z,54.70
2019-04-14T15:26:21.538Z,54.90
2019-04-14T15:28:51.171Z,55.30
2019-04-14T15:31:20.881Z,56.40
2019-04-14T15:33:50.449Z,57.90
2019-04-14T15:36:20.012Z,57.10
2019-04-14T15:38:49.662Z,57.10
2019-04-14T15:41:19.305Z,57.50
2019-04-14T15:43:48.958Z,57.50
2019-04-14T15:46:18.600Z,57.30
2019-04-14T15:48:48.169Z,57.80
2019-04-14T15:51:17.679Z,58.80
2019-04-14T15:53:47.248Z,59.70
2019-04-14T15:56:25.418Z,59.20
2019-04-14T15:58:59.339Z,59.10
2019-04-14T16:01:48.801Z,58.20
2019-04-14T16:04:20.037Z,56.60
2019-04-14T16:06:56.924Z,55.40
2019-04-14T16:09:28.138Z,56.00
2019-04-14T16:12:05.046Z,56.50
2019-04-14T16:14:41.990Z,55.90
2019-04-14T16:17:28.159Z,56.60
2019-04-14T16:19:59.369Z,56.80
2019-04-14T16:22:29.043Z,56.50
2019-04-14T16:24:58.608Z,57.40
2019-04-14T16:27:29.899Z,57.00
2019-04-14T16:30:16.100Z,57.00
2019-04-14T16:32:47.455Z,57.30
2019-04-14T16:35:18.578Z,57.00
2019-04-14T16:37:48.200Z,57.30
2019-04-14T16:40:17.847Z,56.60
2019-04-14T16:42:51.524Z,57.40
2019-04-14T16:45:21.508Z,57.40
2019-04-14T16:47:51.081Z,57.50
2019-04-14T16:50:20.737Z,57.80
2019-04-14T16:53:04.095Z,57.80
2019-04-14T16:55:38.300Z,57.80
2019-04-14T16:58:15.250Z,57.90
2019-04-14T17:00:46.568Z,58.10
2019-04-14T17:03:16.204Z,58.20
2019-04-14T17:05:45.927Z,58.40
2019-04-14T17:08:15.564Z,58.80
2019-04-14T17:10:45.241Z,59.70
2019-04-14T17:13:14.875Z,60.00
2019-04-14T17:15:49.089Z,60.60
2019-04-14T17:18:20.305Z,60.50
2019-04-14T17:21:10.970Z,60.10
2019-04-14T17:23:55.413Z,60.00
2019-04-14T17:26:26.781Z,59.70
2019-04-14T17:29:10.055Z,60.20
2019-04-14T17:31:44.029Z,60.40
2019-04-14T17:34:17.902Z,60.80
2019-04-14T17:36:49.207Z,60.50
2019-04-14T17:39:31.603Z,60.40
2019-04-14T17:42:02.157Z,60.20
2019-04-14T17:44:34.525Z,60.60
2019-04-14T17:47:06.808Z,62.80
2019-04-14T17:49:38.100Z,66.60
2019-04-14T17:52:25.401Z,70.50
2019-04-14T17:54:56.689Z,75.50
2019-04-14T17:57:42.895Z,74.60
2019-04-14T18:00:14.213Z,79.50
2019-04-14T18:02:51.227Z,78.40
2019-04-14T18:05:38.676Z,81.50
2019-04-14T18:08:22.060Z,83.80
2019-04-14T18:10:53.274Z,86.70
2019-04-14T18:13:24.573Z,86.00
2019-04-14T18:15:58.519Z,81.30
2019-04-14T18:18:29.803Z,82.20
2019-04-14T18:21:02.818Z,83.20
2019-04-14T18:23:32.370Z,85.90
2019-04-14T18:26:01.965Z,85.70
2019-04-14T18:28:36.210Z,86.50
2019-04-14T18:31:25.648Z,83.50
2019-04-14T18:34:05.470Z,84.00
2019-04-14T18:36:36.752Z,84.90
2019-04-14T18:39:22.863Z,88.80
2019-04-14T18:42:03.184Z,84.50
2019-04-14T18:44:46.293Z,87.20
2019-04-14T18:47:23.135Z,88.00
2019-04-14T18:49:54.341Z,90.20
2019-04-14T18:52:34.151Z,87.50
2019-04-14T18:55:05.915Z,87.10
2019-04-14T18:57:46.122Z,85.10
2019-04-14T19:00:33.757Z,87.10
2019-04-14T19:03:03.344Z,86.90
2019-04-14T19:05:33.077Z,90.00
2019-04-14T19:08:02.726Z,90.50
2019-04-14T19:10:32.377Z,90.10
2019-04-14T19:13:03.739Z,90.10
2019-04-14T19:15:43.710Z,90.70
2019-04-14T19:18:14.871Z,90.80
2019-04-14T19:20:46.165Z,89.80
2019-04-14T19:23:15.809Z,90.50
2019-04-14T19:25:45.321Z,90.80
2019-04-14T19:28:16.075Z,90.00
2019-04-14T19:30:45.797Z,90.80
2019-04-14T19:33:15.454Z,90.60
2019-04-14T19:35:45.185Z,91.00
2019-04-14T19:38:14.834Z,91.40
2019-04-14T19:40:44.502Z,91.40
2019-04-14T19:43:23.521Z,90.60
2019-04-14T19:45:45.447Z,91.90
2019-04-14T19:48:14.953Z,91.10
2019-04-14T19:50:44.648Z,92.10
2019-04-14T19:53:14.300Z,92.30
2019-04-14T19:55:43.970Z,92.10
2019-04-14T19:58:13.621Z,92.00
2019-04-14T20:00:43.201Z,91.90
2019-04-14T20:03:12.842Z,91.90
2019-04-14T20:05:42.445Z,91.70
2019-04-14T20:08:12.030Z,92.10
2019-04-14T20:10:41.671Z,92.10
2019-04-14T20:13:11.335Z,92.40
2019-04-14T20:15:45.728Z,91.90
2019-04-14T20:18:17.138Z,92.20
2019-04-14T20:20:57.317Z,91.90
2019-04-14T20:23:28.527Z,92.40
2019-04-14T20:26:11.497Z,92.30
2019-04-14T20:28:45.335Z,92.20
2019-04-14T20:31:28.638Z,92.10
2019-04-14T20:33:58.298Z,92.40
2019-04-14T20:36:28.014Z,92.60
2019-04-14T20:38:58.612Z,92.80
2019-04-14T20:41:28.118Z,92.40
2019-04-14T20:43:57.790Z,92.50
2019-04-14T20:46:27.433Z,92.10
2019-04-14T20:48:57.218Z,93.00
2019-04-14T20:51:28.441Z,92.70
2019-04-14T20:53:58.157Z,92.60
2019-04-14T20:56:27.817Z,92.30
2019-04-14T20:58:57.540Z,93.00
2019-04-14T21:01:28.829Z,92.50
2019-04-14T21:04:08.930Z,93.20
2019-04-14T21:06:42.817Z,92.70
2019-04-14T21:09:16.596Z,93.50
2019-04-14T21:11:57.031Z,93.30
2019-04-14T21:14:46.148Z,93.20
2019-04-14T21:17:17.432Z,93.40
2019-04-14T21:19:48.645Z,93.20
2019-04-14T21:22:19.933Z,93.20
2019-04-14T21:24:56.733Z,93.30
2019-04-14T21:27:33.633Z,93.20
2019-04-14T21:30:08.386Z,93.60
2019-04-14T21:32:39.677Z,93.40
2019-04-14T21:35:13.836Z,93.60
2019-04-14T21:37:54.038Z,94.10
2019-04-14T21:40:25.339Z,93.60
2019-04-14T21:42:55.013Z,93.70
2019-04-14T21:45:26.190Z,93.60
2019-04-14T21:47:56.025Z,93.80
2019-04-14T21:50:25.540Z,93.90
2019-04-14T21:52:55.184Z,93.50
2019-04-14T21:55:24.760Z,94.30
2019-04-14T21:57:56.053Z,93.80
2019-04-14T22:00:44.928Z,93.80
2019-04-14T22:03:17.924Z,93.80
2019-04-14T22:05:49.230Z,93.60
2019-04-14T22:08:36.865Z,94.20
2019-04-14T22:11:08.156Z,93.70
2019-04-14T22:13:37.730Z,93.70
2019-04-14T22:16:07.310Z,93.20
2019-04-14T22:18:36.880Z,93.00
2019-04-14T22:21:06.529Z,93.00
2019-04-14T22:23:36.184Z,92.90
2019-04-14T22:26:05.902Z,93.20
2019-04-14T22:28:35.706Z,93.20
2019-04-14T22:31:05.346Z,94.00
2019-04-14T22:33:35.147Z,93.80
2019-04-14T22:36:05.241Z,93.10
2019-04-14T22:38:34.878Z,93.10
2019-04-14T22:41:05.161Z,93.00
2019-04-14T22:43:34.868Z,92.50
2019-04-14T22:46:04.626Z,92.90
2019-04-14T22:48:34.205Z,93.50
2019-04-14T22:51:03.963Z,93.70
2019-04-14T22:53:33.602Z,93.40
2019-04-14T22:56:03.389Z,93.40
2019-04-14T22:58:33.011Z,93.60
2019-04-14T23:01:04.507Z,93.60
2019-04-14T23:07:29.665Z,93.90
2019-04-14T23:10:16.135Z,93.80
2019-04-14T23:12:47.401Z,94.20
2019-04-14T23:15:21.217Z,94.80
2019-04-14T23:17:58.438Z,94.70
2019-04-14T23:20:32.608Z,95.40
2019-04-14T23:23:06.460Z,94.70
2019-04-14T23:25:36.159Z,94.40
2019-04-14T23:28:05.922Z,94.90
2019-04-14T23:30:35.611Z,95.60
2019-04-14T23:33:05.318Z,95.00
2019-04-14T23:35:35.023Z,95.30
2019-04-14T23:38:04.669Z,95.90
2019-04-14T23:40:34.666Z,95.30
2019-04-14T23:43:04.522Z,95.10
2019-04-14T23:45:34.096Z,95.60
2019-04-14T23:48:03.822Z,95.30
2019-04-14T23:50:33.465Z,95.50
2019-04-14T23:53:03.119Z,95.90
2019-04-14T23:55:32.709Z,95.60
2019-04-14T23:58:02.394Z,95.60
